createdAt,value
2022-09-24T00:04:02.964Z,17.30
2022-09-24T00:09:36.439Z,20.30
2022-09-24T00:14:47.764Z,28.70
2022-09-24T00:20:01.540Z,17.60
2022-09-24T00:25:42.217Z,20.80
2022-09-24T00:31:08.181Z,24.00
2022-09-24T00:36:18.635Z,31.00
2022-09-24T00:41:49.208Z,27.90
2022-09-24T00:47:15.110Z,23.90
2022-09-24T00:52:46.442Z,22.80
2022-09-24T00:57:58.522Z,24.10
2022-09-24T01:03:10.673Z,24.20
2022-09-24T01:08:41.662Z,22.90
2022-09-24T01:14:33.090Z,22.80
2022-09-24T01:20:14.821Z,23.60
2022-09-24T01:25:33.053Z,19.40
2022-09-24T01:30:43.560Z,23.30
2022-09-24T01:36:09.836Z,22.00
2022-09-24T01:41:39.624Z,31.60
2022-09-24T01:47:00.171Z,29.70
2022-09-24T01:52:22.577Z,26.80
2022-09-24T01:57:48.214Z,28.20
2022-09-24T02:03:01.961Z,25.50
2022-09-24T02:08:23.566Z,28.10
2022-09-24T02:13:56.663Z,27.40
2022-09-24T02:19:17.230Z,26.90
2022-09-24T02:24:33.923Z,28.40
2022-09-24T02:30:02.722Z,29.90
2022-09-24T02:35:21.226Z,32.90
2022-09-24T02:40:31.848Z,25.30
2022-09-24T02:45:48.349Z,32.60
2022-09-24T02:50:55.959Z,27.20
2022-09-24T02:56:05.564Z,31.90
2022-09-24T03:01:24.806Z,32.30
2022-09-24T03:06:45.948Z,25.90
2022-09-24T03:12:07.946Z,25.90
2022-09-24T03:17:34.325Z,26.50
2022-09-24T03:22:55.221Z,35.70
2022-09-24T03:28:16.251Z,38.60
2022-09-24T03:33:23.858Z,25.30
2022-09-24T03:38:38.398Z,27.30
2022-09-24T03:43:46.495Z,31.30
2022-09-24T03:49:14.200Z,37.20
2022-09-24T03:54:41.799Z,32.70
2022-09-24T04:00:09.926Z,28.30
2022-09-24T04:05:18.489Z,30.20
2022-09-24T04:10:47.885Z,29.00
2022-09-24T04:16:42.212Z,33.60
2022-09-24T04:22:10.237Z,33.50
2022-09-24T04:27:28.972Z,32.10
2022-09-24T04:33:01.863Z,34.00
2022-09-24T04:38:29.627Z,43.00
2022-09-24T04:43:58.010Z,38.80
2022-09-24T04:49:15.605Z,36.80
2022-09-24T04:54:34.212Z,32.40
2022-09-24T05:00:26.088Z,34.20
2022-09-24T05:06:17.490Z,33.60
2022-09-24T05:11:45.146Z,31.00
2022-09-24T05:17:04.208Z,34.40
2022-09-24T05:22:11.404Z,45.20
2022-09-24T05:27:39.329Z,34.60
2022-09-24T05:32:49.704Z,38.20
2022-09-24T05:37:57.173Z,43.50
2022-09-24T05:43:07.255Z,41.00
2022-09-24T05:48:31.217Z,36.00
2022-09-24T05:53:50.590Z,36.20
2022-09-24T05:58:57.916Z,34.20
2022-09-24T06:04:16.551Z,35.40
2022-09-24T06:09:36.717Z,41.20
2022-09-24T06:15:04.404Z,34.60
2022-09-24T06:20:12.226Z,34.90
2022-09-24T06:30:38.258Z,34.40
2022-09-24T06:35:50.192Z,35.70
2022-09-24T06:41:08.069Z,34.00
2022-09-24T06:46:35.795Z,37.30
2022-09-24T06:51:43.325Z,29.70
2022-09-24T06:56:50.549Z,33.30
2022-09-24T07:02:18.257Z,31.90
2022-09-24T07:07:37.916Z,31.70
2022-09-24T07:12:58.707Z,33.40
2022-09-24T07:18:07.176Z,34.20
2022-09-24T07:23:31.059Z,38.10
2022-09-24T07:28:38.347Z,31.70
2022-09-24T07:33:45.751Z,34.40
2022-09-24T07:39:00.364Z,36.90
2022-09-24T07:44:32.148Z,36.80
2022-09-24T07:50:48.395Z,36.70
2022-09-24T07:56:01.679Z,41.00
2022-09-24T08:01:23.784Z,35.70
2022-09-24T08:06:48.796Z,28.50
2022-09-24T08:12:11.234Z,30.50
2022-09-24T08:17:29.068Z,30.70
2022-09-24T08:22:49.406Z,35.90
2022-09-24T08:28:09.057Z,34.20
2022-09-24T08:33:22.269Z,26.10
2022-09-24T08:38:29.754Z,31.40
2022-09-24T08:43:48.481Z,36.30
2022-09-24T08:48:59.478Z,31.60
2022-09-24T08:54:11.295Z,33.50
2022-09-24T08:59:30.575Z,28.90
2022-09-24T09:04:50.044Z,31.60
2022-09-24T09:10:16.389Z,25.10
2022-09-24T09:15:31.279Z,24.40
2022-09-24T09:21:07.698Z,20.00
2022-09-24T09:26:26.885Z,22.80
2022-09-24T09:31:56.477Z,18.10
2022-09-24T09:37:29.791Z,20.50
2022-09-24T09:43:04.421Z,21.60
2022-09-24T09:48:43.501Z,21.80
2022-09-24T09:54:03.027Z,17.00
2022-09-24T09:59:29.428Z,18.50
2022-09-24T10:04:59.978Z,17.90
2022-09-24T10:10:28.317Z,15.30
2022-09-24T10:15:45.434Z,21.30
2022-09-24T10:21:16.906Z,15.60
2022-09-24T10:26:45.280Z,13.50
2022-09-24T10:32:00.738Z,16.30
2022-09-24T10:37:28.516Z,12.50
2022-09-24T10:42:38.606Z,14.40
2022-09-24T10:48:11.829Z,12.40
2022-09-24T10:53:42.323Z,15.80
2022-09-24T10:59:32.572Z,14.40
2022-09-24T11:10:35.990Z,18.50
2022-09-24T11:16:11.230Z,10.90
2022-09-24T11:21:48.441Z,6.90
2022-09-24T11:27:34.584Z,8.50
2022-09-24T11:33:23.246Z,13.00
2022-09-24T11:38:50.921Z,7.10
2022-09-24T11:44:52.564Z,6.10
2022-09-24T11:50:19.454Z,6.20
2022-09-24T11:55:44.460Z,7.10
2022-09-24T12:01:00.202Z,9.60
2022-09-24T12:06:33.954Z,7.40
2022-09-24T12:11:47.378Z,9.60
2022-09-24T12:17:01.749Z,8.40
2022-09-24T12:22:28.242Z,9.00
2022-09-24T12:27:39.955Z,6.80
2022-09-24T12:32:56.284Z,3.70
2022-09-24T12:38:10.039Z,7.30
2022-09-24T12:43:26.514Z,9.90
2022-09-24T12:48:48.210Z,3.00
2022-09-24T12:54:06.922Z,5.50
2022-09-24T12:59:29.793Z,3.20
2022-09-24T13:04:37.717Z,4.90
2022-09-24T13:09:54.399Z,3.90
2022-09-24T13:15:35.205Z,4.90
2022-09-24T13:21:09.422Z,6.40
2022-09-24T13:26:30.447Z,10.70
2022-09-24T13:32:07.233Z,3.80
2022-09-24T13:37:33.379Z,8.40
2022-09-24T13:42:52.506Z,9.90
2022-09-24T13:48:04.997Z,7.90
2022-09-24T13:53:23.514Z,4.20
2022-09-24T13:58:54.473Z,9.70
2022-09-24T14:04:25.984Z,6.30
2022-09-24T14:09:48.061Z,3.90
2022-09-24T14:14:58.478Z,9.00
2022-09-24T14:20:28.153Z,8.40
2022-09-24T14:25:39.977Z,6.60
2022-09-24T14:30:54.262Z,5.70
2022-09-24T14:36:16.873Z,3.00
2022-09-24T14:41:37.723Z,7.70
2022-09-24T14:47:31.379Z,7.80
2022-09-24T14:52:43.073Z,3.60
2022-09-24T14:57:57.492Z,4.50
2022-09-24T15:03:31.492Z,4.50
2022-09-24T15:08:40.301Z,6.00
2022-09-24T15:13:58.740Z,3.50
2022-09-24T15:19:30.885Z,4.50
2022-09-24T15:24:40.784Z,6.90
2022-09-24T15:29:51.544Z,10.50
2022-09-24T15:34:58.940Z,13.40
2022-09-24T15:40:17.245Z,13.70
2022-09-24T15:45:35.942Z,9.60
2022-09-24T15:51:10.112Z,12.30
2022-09-24T15:56:29.091Z,7.50
2022-09-24T16:01:44.308Z,12.80
2022-09-24T16:12:06.251Z,7.90
2022-09-24T16:17:25.246Z,11.70
2022-09-24T16:22:35.942Z,9.90
2022-09-24T16:27:45.997Z,11.60
2022-09-24T16:32:55.811Z,11.40
2022-09-24T16:38:12.315Z,19.30
2022-09-24T16:43:28.285Z,13.20
2022-09-24T16:49:19.840Z,13.90
2022-09-24T16:54:36.976Z,24.80
2022-09-24T16:59:55.345Z,12.70
2022-09-24T17:05:02.922Z,19.50
2022-09-24T17:10:16.217Z,17.30
2022-09-24T17:15:23.563Z,16.30
2022-09-24T17:21:00.329Z,12.10
2022-09-24T17:26:11.869Z,14.70
2022-09-24T17:31:32.477Z,16.00
2022-09-24T17:36:51.250Z,18.70
2022-09-24T17:41:59.052Z,23.20
2022-09-24T17:47:47.392Z,23.40
2022-09-24T17:52:54.701Z,11.50
2022-09-24T17:58:02.029Z,19.20
2022-09-24T18:03:09.802Z,16.20
2022-09-24T18:13:35.273Z,28.80
2022-09-24T18:18:49.298Z,28.90
2022-09-24T18:23:57.894Z,17.40
2022-09-24T18:29:10.476Z,19.10
2022-09-24T18:34:43.198Z,19.20
2022-09-24T18:39:52.095Z,13.70
2022-09-24T18:44:59.835Z,17.10
2022-09-24T18:50:15.186Z,16.20
2022-09-24T18:55:39.336Z,11.30
2022-09-24T19:01:03.391Z,10.30
2022-09-24T19:06:32.617Z,11.90
2022-09-24T19:11:45.739Z,11.50
2022-09-24T19:16:56.452Z,14.50
2022-09-24T19:22:03.604Z,15.20
2022-09-24T19:27:12.729Z,13.70
2022-09-24T19:32:41.769Z,15.00
2022-09-24T19:37:52.197Z,20.80
2022-09-24T19:43:03.865Z,13.60
2022-09-24T19:48:12.492Z,9.10
2022-09-24T19:53:21.323Z,11.20
2022-09-24T19:58:30.016Z,22.90
2022-09-24T20:10:49.315Z,15.60
2022-09-24T20:16:09.284Z,12.60
2022-09-24T20:21:25.158Z,18.80
2022-09-24T20:26:54.536Z,19.50
2022-09-24T20:32:28.462Z,19.50
2022-09-24T20:38:03.272Z,25.00
2022-09-24T20:43:11.758Z,17.90
2022-09-24T20:48:44.911Z,18.10
2022-09-24T20:54:25.065Z,21.90
2022-09-24T20:59:50.647Z,21.50
2022-09-24T21:05:23.311Z,18.60
2022-09-24T21:11:18.507Z,14.10
2022-09-24T21:38:05.184Z,15.30
2022-09-24T21:44:06.057Z,16.60
2022-09-24T21:49:37.195Z,22.70
2022-09-24T22:49:13.883Z,25.60
2022-09-24T23:26:14.231Z,17.40
2022-09-24T23:46:16.034Z,18.40
